Time;durP1;ratioP1;P1;durP2;ratioP2;P2;SDS_P1;SDS_P2;PMS_P1;PMS_P2;Temp;Humidity;BMP_temperature;BMP_pressure;BME280_temperature;BME280_humidity;BME280_pressure;Samples;Min_cycle;Max_cycle;Signal;HPM_P1;HPM_P2
2022/09/08 00:02:14;;;;;;;11.07;2.30;;;;;;;23.58;50.22;97359.44;8315527;28;20239;-77
2022/09/08 00:06:19;;;;;;;5.70;2.27;;;;;;;23.61;50.65;97361.78;8315206;28;20237;-77
2022/09/08 00:10:22;;;;;;;6.93;2.10;;;;;;;23.50;50.67;97346.25;8314883;28;20246;-77
2022/09/08 00:14:25;;;;;;;6.37;2.50;;;;;;;23.58;51.25;97351.50;8314905;28;20236;-77
2022/09/08 00:18:29;;;;;;;6.90;2.20;;;;;;;23.52;51.23;97350.34;8314877;28;20229;-78
2022/09/08 00:22:32;;;;;;;7.20;2.40;;;;;;;23.51;50.63;97359.25;8314826;28;20262;-77
2022/09/08 00:26:35;;;;;;;8.90;2.77;;;;;;;23.38;51.40;97358.91;8314803;28;20238;-78
2022/09/08 00:30:38;;;;;;;7.60;2.93;;;;;;;23.33;51.86;97369.19;8314767;28;20236;-77
2022/09/08 00:34:42;;;;;;;3.70;2.43;;;;;;;23.38;50.64;97383.53;8314538;28;20280;-77
2022/09/08 00:38:50;;;;;;;9.10;2.80;;;;;;;23.12;51.66;97393.41;8314537;28;20228;-77
2022/09/08 00:43:00;;;;;;;5.20;2.10;;;;;;;23.19;51.47;97404.97;8314160;28;20512;-77
2022/09/08 00:47:04;;;;;;;7.77;2.67;;;;;;;23.06;53.38;97404.63;8314926;28;20232;-78
2022/09/08 00:51:08;;;;;;;11.13;2.70;;;;;;;22.84;54.92;97406.78;8320613;28;20232;-76
2022/09/08 00:55:12;;;;;;;6.87;2.80;;;;;;;22.90;56.21;97406.16;8320706;28;20238;-76
2022/09/08 00:59:17;;;;;;;13.10;3.07;;;;;;;22.53;58.92;97403.88;8320755;28;20232;-76
2022/09/08 01:03:19;;;;;;;9.07;3.13;;;;;;;22.63;59.94;97388.72;8330844;28;20532;-77
2022/09/08 01:16:15;;;;;;;10.00;2.80;;;;;;;22.45;61.97;97373.81;8320103;28;20231;-76
2022/09/08 01:20:20;;;;;;;8.50;3.33;;;;;;;22.04;63.72;97375.34;8320182;28;20405;-76
2022/09/08 01:24:32;;;;;;;6.60;2.90;;;;;;;21.63;65.53;97362.69;8319567;28;20237;-77
2022/09/08 01:28:40;;;;;;;8.47;2.77;;;;;;;21.62;65.55;97366.31;8319637;28;20578;-77
2022/09/08 01:32:44;;;;;;;10.90;3.53;;;;;;;21.51;66.57;97369.16;8319475;28;20244;-76
2022/09/08 01:36:46;;;;;;;9.13;3.37;;;;;;;21.52;66.77;97377.91;8319453;28;20229;-76
2022/09/08 01:40:49;;;;;;;8.23;3.13;;;;;;;20.92;69.41;97381.06;8318675;28;20271;-76
2022/09/08 01:44:53;;;;;;;6.63;2.93;;;;;;;21.31;67.85;97384.28;8319050;28;20519;-76
2022/09/08 01:48:56;;;;;;;7.20;2.80;;;;;;;21.75;65.89;97375.63;8319098;28;20235;-76
2022/09/08 01:52:58;;;;;;;7.40;2.70;;;;;;;21.86;65.40;97363.03;8318895;28;20233;-76
2022/09/08 01:57:02;;;;;;;7.40;2.77;;;;;;;21.88;65.18;97362.91;8318803;28;20459;-77
2022/09/08 02:01:06;;;;;;;7.00;2.70;;;;;;;21.99;64.64;97367.91;8317527;28;20461;-77
2022/09/08 02:05:09;;;;;;;6.80;2.37;;;;;;;21.70;65.45;97356.81;8318405;28;20247;-76
2022/09/08 02:09:12;;;;;;;6.10;2.13;;;;;;;22.08;63.82;97360.06;8318400;28;20278;-77
2022/09/08 02:13:15;;;;;;;6.90;2.20;;;;;;;22.12;64.17;97345.56;8318436;28;20239;-76
2022/09/08 02:17:19;;;;;;;3.83;2.07;;;;;;;22.08;63.76;97346.88;8318177;28;20225;-76
2022/09/08 02:21:24;;;;;;;4.63;1.83;;;;;;;22.13;64.01;97352.50;8318034;28;20236;-77
2022/09/08 02:25:26;;;;;;;4.83;2.50;;;;;;;22.18;63.42;97358.13;8317824;28;20252;-76
2022/09/08 02:29:29;;;;;;;6.47;2.20;;;;;;;22.25;63.21;97338.09;8317828;28;20233;-76
2022/09/08 02:33:34;;;;;;;5.20;2.47;;;;;;;22.14;64.07;97330.41;8317705;28;20228;-77
2022/09/08 02:37:37;;;;;;;6.67;2.30;;;;;;;22.24;62.79;97313.50;8317280;28;20233;-77
2022/09/08 02:41:41;;;;;;;5.33;2.20;;;;;;;22.21;63.48;97308.53;8317200;28;20229;-76
2022/09/08 02:45:44;;;;;;;7.93;2.50;;;;;;;22.20;63.44;97308.69;8317170;28;20234;-76
2022/09/08 02:49:48;;;;;;;6.00;1.90;;;;;;;22.10;64.31;97305.34;8317151;28;20402;-76
2022/09/08 02:53:54;;;;;;;4.37;2.10;;;;;;;22.15;63.75;97308.34;8316089;28;20244;-76
2022/09/08 02:57:57;;;;;;;5.77;2.40;;;;;;;22.21;64.12;97303.25;8317077;28;20468;-76
2022/09/08 03:02:00;;;;;;;4.70;2.10;;;;;;;22.20;63.90;97301.63;8316588;28;20236;-76
2022/09/08 03:06:05;;;;;;;5.00;2.03;;;;;;;22.19;62.76;97304.41;8316272;28;20240;-76
2022/09/08 03:10:08;;;;;;;5.67;2.10;;;;;;;22.09;63.24;97311.63;8316144;28;20232;-76
2022/09/08 03:14:11;;;;;;;4.63;2.03;;;;;;;22.13;63.50;97319.06;8316279;28;20511;-77
2022/09/08 03:18:13;;;;;;;3.90;2.07;;;;;;;22.15;62.74;97313.63;8316271;28;20261;-77
2022/09/08 03:22:18;;;;;;;5.93;2.00;;;;;;;22.16;62.63;97305.56;8315919;28;20239;-76
2022/09/08 03:26:24;;;;;;;3.17;1.80;;;;;;;22.13;62.69;97300.59;8316234;28;20453;-77
2022/09/08 03:30:27;;;;;;;4.63;2.00;;;;;;;22.13;62.17;97286.59;8315959;28;20299;-77
2022/09/08 03:34:30;;;;;;;5.70;1.83;;;;;;;22.02;62.82;97291.13;8315754;28;20229;-77
2022/09/08 03:38:35;;;;;;;5.93;1.90;;;;;;;22.04;63.56;97283.06;8315655;28;20252;-77
2022/09/08 03:42:40;;;;;;;5.73;2.43;;;;;;;22.02;63.59;97274.50;8315493;28;20302;-77
2022/09/08 03:46:43;;;;;;;6.60;2.10;;;;;;;22.08;63.03;97273.88;8315484;28;20232;-76
2022/09/08 03:50:45;;;;;;;3.03;1.70;;;;;;;22.08;62.99;97267.78;8315331;28;20299;-76
2022/09/08 03:54:50;;;;;;;5.07;2.17;;;;;;;22.05;62.88;97271.56;8314688;28;20525;-76
2022/09/08 03:58:53;;;;;;;5.80;2.20;;;;;;;22.04;62.70;97272.53;8315124;28;20233;-76
2022/09/08 04:02:56;;;;;;;5.23;2.30;;;;;;;21.93;63.65;97265.72;8314920;28;20245;-76
2022/09/08 04:07:02;;;;;;;4.77;2.00;;;;;;;22.01;63.88;97260.50;8314993;28;20536;-76
2022/09/08 04:11:08;;;;;;;4.33;2.37;;;;;;;21.99;63.70;97245.81;8315045;28;20241;-76
2022/09/08 04:15:11;;;;;;;6.27;2.20;;;;;;;21.96;63.87;97249.59;8315081;28;20229;-76
2022/09/08 04:19:13;;;;;;;5.03;2.63;;;;;;;21.86;63.85;97251.53;8314819;28;20252;-76
2022/09/08 04:23:16;;;;;;;4.47;1.90;;;;;;;21.85;64.23;97252.50;8313867;28;20249;-77
2022/09/08 04:27:21;;;;;;;3.73;2.17;;;;;;;21.88;64.33;97256.66;8314642;28;20236;-77
2022/09/08 04:31:24;;;;;;;7.37;2.37;;;;;;;21.94;63.73;97256.84;8314807;28;20228;-77
2022/09/08 04:35:26;;;;;;;4.80;2.23;;;;;;;21.88;64.29;97257.47;8314850;28;20291;-77
2022/09/08 04:39:29;;;;;;;3.13;1.97;;;;;;;21.91;63.81;97264.22;8314523;28;20228;-77
2022/09/08 04:43:34;;;;;;;4.43;2.13;;;;;;;21.81;64.10;97259.88;8314331;28;20295;-77
2022/09/08 04:47:37;;;;;;;4.00;1.70;;;;;;;21.83;63.54;97262.38;8314232;28;20225;-75
2022/09/08 04:51:40;;;;;;;4.53;1.97;;;;;;;21.68;62.55;97251.56;8314080;28;20534;-78
2022/09/08 04:55:43;;;;;;;2.63;1.50;;;;;;;21.80;62.40;97258.25;8314506;28;20473;-77
2022/09/08 04:59:47;;;;;;;2.03;1.30;;;;;;;21.64;62.37;97258.13;8314282;28;20243;-77
2022/09/08 05:03:52;;;;;;;2.77;1.10;;;;;;;21.74;61.55;97258.88;8313274;28;20268;-77
2022/09/08 05:07:54;;;;;;;2.23;1.20;;;;;;;21.74;61.50;97263.31;8313980;28;20221;-77
2022/09/08 05:11:57;;;;;;;2.57;1.33;;;;;;;21.49;61.88;97265.75;8313992;28;20239;-77
2022/09/08 05:16:06;;;;;;;3.90;1.33;;;;;;;21.74;61.29;97260.66;8314325;28;20232;-78
2022/09/08 05:20:09;;;;;;;1.80;1.20;;;;;;;21.66;61.75;97258.81;8313697;28;20382;-77
2022/09/08 05:24:11;;;;;;;4.63;1.23;;;;;;;21.73;61.34;97257.22;8313843;28;20259;-77
2022/09/08 05:28:14;;;;;;;3.87;1.27;;;;;;;21.55;61.14;97267.81;8313718;28;20235;-77
2022/09/08 05:32:18;;;;;;;5.03;1.37;;;;;;;21.73;61.49;97278.28;8313402;28;20229;-77
2022/09/08 05:36:23;;;;;;;4.13;1.63;;;;;;;21.42;62.01;97272.63;8319246;28;20225;-77
2022/09/08 05:40:25;;;;;;;5.40;1.67;;;;;;;21.54;61.57;97276.69;8319522;28;20417;-78
2022/09/08 05:44:28;;;;;;;3.00;1.30;;;;;;;21.65;62.58;97278.25;8318985;28;20256;-77
2022/09/08 05:48:33;;;;;;;2.13;1.40;;;;;;;21.61;62.22;97279.50;8319084;28;20565;-77
2022/09/08 05:52:35;;;;;;;2.97;1.30;;;;;;;21.53;61.83;97277.66;8319079;28;20228;-77
2022/09/08 05:56:38;;;;;;;2.47;1.30;;;;;;;21.51;61.91;97295.41;8319035;28;20236;-77
2022/09/08 06:00:41;;;;;;;2.70;1.30;;;;;;;21.67;61.51;97285.00;8318695;28;20229;-78
2022/09/08 06:04:45;;;;;;;4.40;1.40;;;;;;;21.73;61.32;97290.66;8318488;28;20239;-77
2022/09/08 06:08:48;;;;;;;2.00;1.07;;;;;;;21.69;62.13;97290.13;8318024;28;20259;-77
2022/09/08 06:12:51;;;;;;;4.57;1.30;;;;;;;21.75;61.83;97291.31;8318291;28;20237;-77
2022/09/08 06:16:54;;;;;;;4.23;1.50;;;;;;;21.64;61.61;97281.84;8318170;28;20255;-77
2022/09/08 06:20:58;;;;;;;2.07;1.10;;;;;;;21.63;61.98;97294.19;8317941;28;20228;-78
2022/09/08 06:25:01;;;;;;;5.17;1.33;;;;;;;21.67;61.67;97295.53;8317828;28;20237;-77
2022/09/08 06:29:08;;;;;;;3.00;1.30;;;;;;;21.67;61.50;97302.63;8317761;28;20228;-77
2022/09/08 06:33:14;;;;;;;2.43;1.37;;;;;;;21.64;61.92;97310.81;8317852;28;20228;-77
2022/09/08 06:37:29;;;;;;;2.37;1.20;;;;;;;21.73;61.46;97314.38;8317701;28;20247;-77
2022/09/08 06:41:34;;;;;;;2.43;1.10;;;;;;;21.70;61.48;97312.84;8317327;28;20232;-77
2022/09/08 06:45:38;;;;;;;2.60;1.27;;;;;;;21.72;61.27;97316.16;8316708;28;20283;-77
2022/09/08 06:49:40;;;;;;;1.93;1.13;;;;;;;21.74;61.46;97323.91;8317320;28;20225;-77
2022/09/08 06:53:50;;;;;;;1.97;1.03;;;;;;;21.54;61.61;97329.38;8316983;28;20249;-78
2022/09/08 06:58:05;;;;;;;2.93;1.20;;;;;;;21.60;61.33;97335.84;8316516;28;20229;-76
2022/09/08 07:02:22;;;;;;;4.90;0.90;;;;;;;21.62;61.09;97339.97;8316827;28;20290;-77
2022/09/08 07:06:29;;;;;;;2.90;1.10;;;;;;;21.58;61.67;97337.78;8316542;28;20245;-77
2022/09/08 07:10:37;;;;;;;1.80;1.00;;;;;;;21.48;61.67;97343.97;8316531;28;20256;-77
2022/09/08 07:15:10;;;;;;;2.90;1.27;;;;;;;21.39;62.31;97350.13;8316345;28;20232;-77
2022/09/08 07:19:19;;;;;;;2.50;0.90;;;;;;;21.43;62.44;97356.72;8300531;28;20220;-77
2022/09/08 07:23:43;;;;;;;4.07;1.60;;;;;;;21.85;60.42;97356.09;8316052;28;20575;-79
2022/09/08 07:27:56;;;;;;;5.97;1.70;;;;;;;22.29;58.78;97359.72;8315814;28;20320;-77
2022/09/08 07:31:59;;;;;;;3.07;1.30;;;;;;;22.43;59.08;97362.59;8315916;28;20248;-76
2022/09/08 07:36:12;;;;;;;5.07;1.40;;;;;;;22.55;58.35;97367.59;8316189;28;20240;-78
2022/09/08 07:40:18;;;;;;;2.63;1.13;;;;;;;22.65;58.07;97368.28;8315763;28;20229;-74
2022/09/08 07:44:22;;;;;;;3.77;1.30;;;;;;;22.50;58.20;97372.50;8315654;28;20260;-76
2022/09/08 07:48:33;;;;;;;3.83;1.00;;;;;;;22.65;57.74;97376.19;8315905;28;20565;-76
2022/09/08 07:52:43;;;;;;;3.57;0.90;;;;;;;22.80;57.25;97385.16;8314672;28;20287;-76
2022/09/08 07:56:49;;;;;;;2.27;0.70;;;;;;;22.29;58.79;97381.63;8314749;28;20556;-79
2022/09/08 08:01:19;;;;;;;2.43;0.80;;;;;;;22.66;57.76;97393.69;8314666;28;20305;-78
2022/09/08 08:05:26;;;;;;;4.03;1.10;;;;;;;22.43;58.79;97388.97;8314928;28;20232;-76
2022/09/08 08:09:37;;;;;;;4.37;0.97;;;;;;;22.77;57.67;97396.06;8315919;28;20233;-79
2022/09/08 08:13:57;;;;;;;3.50;0.87;;;;;;;22.83;57.52;97392.78;8315555;28;20232;-77
2022/09/08 08:18:08;;;;;;;12.60;0.93;;;;;;;22.91;57.62;97407.00;8315069;28;20516;-78
2022/09/08 08:22:16;;;;;;;2.33;0.97;;;;;;;22.57;58.62;97399.91;8314903;28;20236;-77
2022/09/08 08:26:30;;;;;;;5.33;1.13;;;;;;;22.29;60.11;97413.28;8314869;28;20287;-74
2022/09/08 08:30:36;;;;;;;2.80;0.90;;;;;;;21.90;61.94;97415.47;8314767;28;20242;-76
2022/09/08 08:34:44;;;;;;;2.97;0.80;;;;;;;22.06;61.00;97420.84;8314533;28;20236;-75
2022/09/08 08:38:49;;;;;;;2.53;0.80;;;;;;;21.55;62.64;97425.88;8314194;28;20232;-75
2022/09/08 08:42:59;;;;;;;5.27;1.27;;;;;;;21.71;62.50;97421.72;8314359;28;20274;-75
2022/09/08 08:47:26;;;;;;;1.37;0.83;;;;;;;21.64;63.07;97422.31;8314519;28;20240;-77
2022/09/08 08:51:49;;;;;;;1.63;0.67;;;;;;;21.40;64.19;97419.41;8314607;28;20295;-76
2022/09/08 08:56:02;;;;;;;2.07;0.90;;;;;;;21.75;62.67;97420.44;8313599;28;20233;-75
2022/09/08 09:00:15;;;;;;;2.60;0.87;;;;;;;21.70;63.39;97423.50;8314347;28;20237;-77
2022/09/08 09:04:31;;;;;;;2.00;1.00;;;;;;;21.95;62.24;97421.09;8314088;28;20581;-76
2022/09/08 09:08:57;;;;;;;2.30;0.93;;;;;;;21.76;62.35;97422.94;8315703;28;20251;-79
2022/09/08 09:13:08;;;;;;;4.33;1.10;;;;;;;21.90;62.08;97423.38;8320678;28;20291;-79
2022/09/08 09:17:19;;;;;;;1.60;0.80;;;;;;;22.31;60.83;97418.41;8321137;28;20233;-79
2022/09/08 09:21:27;;;;;;;2.50;0.77;;;;;;;22.46;60.74;97435.31;8320858;28;20233;-78
2022/09/08 09:25:35;;;;;;;2.67;0.80;;;;;;;22.45;60.74;97423.94;8320128;28;20233;-78
2022/09/08 09:29:38;;;;;;;4.10;1.00;;;;;;;22.29;60.47;97447.56;8320247;28;20519;-77
2022/09/08 09:33:57;;;;;;;4.27;0.93;;;;;;;22.63;59.41;97450.25;8320073;28;20233;-80
2022/09/08 09:38:18;;;;;;;4.20;0.80;;;;;;;22.48;59.96;97429.88;8319537;28;20232;-78
2022/09/08 09:42:37;;;;;;;2.73;0.63;;;;;;;22.40;59.19;97454.41;8319138;28;20283;-78
2022/09/08 09:47:08;;;;;;;1.20;0.80;;;;;;;22.49;59.19;97452.66;8319075;28;20292;-78
2022/09/08 09:51:28;;;;;;;2.67;0.60;;;;;;;22.70;58.31;97460.19;8302118;28;20235;-78
2022/09/08 09:55:47;;;;;;;1.00;0.70;;;;;;;22.47;58.16;97466.00;8318977;28;20230;-78
2022/09/08 10:00:13;;;;;;;0.80;0.60;;;;;;;22.75;56.65;97457.88;8318343;28;20230;-78
2022/09/08 10:04:51;;;;;;;5.47;0.87;;;;;;;23.19;55.61;97455.97;8310582;28;20458;-79
2022/09/08 10:09:19;;;;;;;1.17;0.70;;;;;;;24.19;53.08;97448.03;8318198;28;20225;-78
2022/09/08 10:14:00;;;;;;;2.00;0.80;;;;;;;24.60;52.24;97452.47;8318179;28;20233;-76
2022/09/08 10:18:33;;;;;;;1.63;0.70;;;;;;;25.23;50.73;97447.31;8246412;28;20225;-77
2022/09/08 10:23:17;;;;;;;1.10;0.60;;;;;;;25.24;48.76;97436.50;8316979;28;20233;-76
2022/09/08 10:28:03;;;;;;;1.57;0.53;;;;;;;24.18;50.41;97459.63;8308120;28;20307;-78
2022/09/08 10:32:25;;;;;;;7.47;0.90;;;;;;;24.89;50.23;97454.53;8317320;28;20279;-77
2022/09/08 10:36:41;;;;;;;2.77;0.60;;;;;;;24.77;49.65;97469.97;8317242;28;20237;-75
2022/09/08 10:40:57;;;;;;;3.37;0.47;;;;;;;25.21;47.60;97460.69;8317376;28;20532;-77
2022/09/08 10:45:21;;;;;;;0.90;0.57;;;;;;;24.23;47.87;97463.56;8316718;28;20429;-76
2022/09/08 10:49:51;;;;;;;1.17;0.70;;;;;;;23.86;48.72;97476.28;8316843;28;20229;-77
2022/09/08 10:54:36;;;;;;;1.47;0.60;;;;;;;23.86;48.04;97475.47;8317025;28;20238;-77
2022/09/08 10:59:12;;;;;;;3.30;0.60;;;;;;;23.97;48.60;97481.28;8218506;28;20466;-76
2022/09/08 11:03:53;;;;;;;1.67;0.53;;;;;;;24.60;46.51;97489.53;8316304;28;20240;-77
2022/09/08 11:08:17;;;;;;;1.73;0.50;;;;;;;24.06;47.61;97489.19;8316216;28;20518;-78
2022/09/08 11:12:41;;;;;;;0.83;0.40;;;;;;;24.28;46.82;97491.19;8316809;28;20228;-76
2022/09/08 11:17:09;;;;;;;2.40;0.60;;;;;;;24.65;46.13;97492.47;8316416;28;20248;-77
2022/09/08 11:21:20;;;;;;;0.90;0.60;;;;;;;24.41;46.06;97482.75;8312394;28;20232;-78
2022/09/08 11:25:32;;;;;;;1.93;0.83;;;;;;;24.11;46.72;97494.81;8316283;28;20236;-77
2022/09/08 11:29:38;;;;;;;4.37;0.60;;;;;;;24.54;45.54;97484.88;8316226;28;20257;-76
2022/09/08 11:33:53;;;;;;;1.17;0.53;;;;;;;24.61;45.33;97490.34;8316018;28;20235;-78
2022/09/08 11:38:19;;;;;;;1.40;0.50;;;;;;;24.19;45.22;97486.88;8315374;28;20223;-76
2022/09/08 11:42:41;;;;;;;4.33;0.67;;;;;;;24.27;44.86;97484.22;8315819;28;20543;-74
2022/09/08 11:47:04;;;;;;;1.73;0.53;;;;;;;23.75;44.87;97485.34;8315343;28;20249;-77
2022/09/08 11:51:19;;;;;;;3.00;0.53;;;;;;;24.15;44.59;97488.22;8315088;28;20232;-77
2022/09/08 11:55:57;;;;;;;1.37;0.60;;;;;;;23.82;44.78;97496.13;8315206;28;20578;-76
2022/09/08 12:00:31;;;;;;;5.70;0.93;;;;;;;24.26;45.10;97495.00;8315112;28;20225;-77
2022/09/08 12:04:47;;;;;;;0.50;0.50;;;;;;;24.73;44.29;97496.94;8315061;28;20241;-76
2022/09/08 12:09:16;;;;;;;5.67;1.10;;;;;;;24.01;43.78;97508.22;8314156;28;20243;-75
2022/09/08 12:13:23;;;;;;;3.13;0.80;;;;;;;24.80;42.58;97495.25;8314755;28;20231;-76
2022/09/08 12:17:35;;;;;;;3.17;0.80;;;;;;;25.26;40.80;97494.63;8314955;28;20237;-75
2022/09/08 12:21:58;;;;;;;2.07;0.70;;;;;;;25.88;40.76;97499.91;8314518;28;20232;-76
2022/09/08 12:26:12;;;;;;;4.13;0.70;;;;;;;25.17;41.61;97496.47;8314476;28;20267;-77
2022/09/08 12:30:25;;;;;;;1.93;0.50;;;;;;;24.71;40.89;97512.16;8314569;28;20226;-76
2022/09/08 12:34:47;;;;;;;1.93;0.50;;;;;;;25.66;39.66;97500.72;8314239;28;20240;-77
2022/09/08 12:39:06;;;;;;;0.93;0.40;;;;;;;26.00;38.93;97500.34;8314704;28;20259;-84
2022/09/08 12:43:15;;;;;;;0.77;0.40;;;;;;;26.20;37.57;97497.22;8315335;28;20233;-77
2022/09/08 12:47:27;;;;;;;1.27;0.60;;;;;;;26.71;36.61;97497.44;8320713;28;20536;-77
2022/09/08 12:51:31;;;;;;;3.50;0.70;;;;;;;26.26;37.05;97500.00;8320827;28;20230;-77
2022/09/08 12:55:40;;;;;;;2.27;0.50;;;;;;;26.46;35.96;97510.91;8320509;28;20394;-76
2022/09/08 12:59:54;;;;;;;5.03;0.57;;;;;;;26.94;35.31;97504.50;8320452;28;20225;-76
2022/09/08 13:03:59;;;;;;;1.30;0.70;;;;;;;27.04;35.16;97499.75;8319809;28;20503;-77
2022/09/08 13:08:09;;;;;;;4.07;0.60;;;;;;;26.81;34.57;97499.84;8320078;28;20229;-77
2022/09/08 13:12:29;;;;;;;1.97;0.60;;;;;;;27.00;34.50;97491.31;8320273;28;20231;-77
2022/09/08 13:16:40;;;;;;;1.63;0.50;;;;;;;27.09;33.45;97494.69;8320175;28;20238;-76
2022/09/08 13:20:44;;;;;;;1.77;0.60;;;;;;;27.13;33.79;97489.84;8319899;28;20228;-77
2022/09/08 13:24:50;;;;;;;2.63;0.60;;;;;;;27.19;33.29;97489.09;8319764;28;20249;-75
2022/09/08 13:29:18;;;;;;;1.23;0.60;;;;;;;27.70;33.28;97491.75;8319266;28;20523;-76
2022/09/08 13:33:55;;;;;;;1.13;0.60;;;;;;;27.37;32.56;97494.88;8319220;28;20247;-77
2022/09/08 13:38:10;;;;;;;1.97;0.80;;;;;;;27.46;32.74;97504.41;8319214;28;20231;-77
2022/09/08 13:42:24;;;;;;;1.00;0.50;;;;;;;26.45;33.52;97498.66;8319371;28;20226;-77
2022/09/08 13:46:36;;;;;;;0.93;0.60;;;;;;;26.63;33.84;97494.88;8319040;28;20231;-77
2022/09/08 13:50:52;;;;;;;0.40;0.40;;;;;;;27.38;33.02;97493.88;8318967;28;20277;-76
2022/09/08 13:55:18;;;;;;;2.30;0.63;;;;;;;26.72;34.97;97486.63;8318541;28;20269;-76
2022/09/08 13:59:29;;;;;;;1.00;0.50;;;;;;;27.57;33.19;97484.47;8318653;28;20390;-77
2022/09/08 14:03:36;;;;;;;1.67;0.60;;;;;;;26.52;34.97;97486.31;8318481;28;20495;-75
2022/09/08 14:07:44;;;;;;;2.47;0.70;;;;;;;26.38;34.48;97491.59;8318348;28;20241;-82
2022/09/08 14:11:57;;;;;;;1.93;0.60;;;;;;;26.20;34.57;97479.47;8318030;28;20235;-78
2022/09/08 14:16:18;;;;;;;2.03;0.50;;;;;;;25.94;33.75;97479.84;8318907;28;20244;-76
2022/09/08 14:20:30;;;;;;;2.30;0.53;;;;;;;26.76;33.27;97486.28;8320639;28;20233;-78
2022/09/08 14:24:43;;;;;;;1.50;0.53;;;;;;;25.69;34.56;97480.00;8318187;28;20278;-77
2022/09/08 14:28:49;;;;;;;1.40;0.50;;;;;;;25.52;34.12;97479.25;8318083;28;20307;-81
2022/09/08 14:33:18;;;;;;;2.97;0.80;;;;;;;25.59;33.01;97479.41;8317707;28;20525;-82
2022/09/08 14:37:26;;;;;;;1.60;0.53;;;;;;;25.05;34.21;97493.34;8317987;28;20234;-82
2022/09/08 14:41:36;;;;;;;2.53;0.50;;;;;;;24.96;34.61;97489.94;8317697;28;20231;-79
2022/09/08 14:45:45;;;;;;;1.00;0.57;;;;;;;25.24;33.66;97486.03;8317568;28;20236;-79
2022/09/08 14:50:22;;;;;;;1.00;0.50;;;;;;;25.61;34.37;97477.41;8316606;28;20238;-77
2022/09/08 14:54:37;;;;;;;1.57;0.50;;;;;;;25.74;33.46;97484.75;8314482;28;20249;-82
2022/09/08 14:58:55;;;;;;;2.33;0.60;;;;;;;25.71;33.51;97470.03;8316638;28;20257;-78
2022/09/08 15:03:00;;;;;;;2.33;0.53;;;;;;;26.25;32.68;97474.44;8316400;28;20252;-78
2022/09/08 15:07:13;;;;;;;2.97;0.90;;;;;;;26.31;32.68;97468.44;8316215;28;20520;-83
2022/09/08 15:11:25;;;;;;;1.93;0.60;;;;;;;26.47;32.39;97482.56;8316947;28;20249;-81
2022/09/08 15:15:34;;;;;;;1.73;0.77;;;;;;;26.42;33.37;97475.13;8316841;28;20225;-80
2022/09/08 15:19:41;;;;;;;2.57;0.70;;;;;;;26.27;33.08;97474.28;8316226;28;20473;-81
2022/09/08 15:23:47;;;;;;;1.50;0.67;;;;;;;26.10;33.75;97482.38;8316233;28;20229;-81
2022/09/08 15:27:53;;;;;;;1.30;0.60;;;;;;;26.23;33.66;97465.84;8315726;28;20233;-82
2022/09/08 15:32:03;;;;;;;2.57;0.83;;;;;;;26.20;33.23;97471.53;8315939;28;20244;-78
2022/09/08 15:36:07;;;;;;;1.97;0.60;;;;;;;26.20;33.87;97462.72;8315657;28;20239;-79
2022/09/08 15:40:18;;;;;;;0.93;0.53;;;;;;;26.26;33.08;97464.69;8315892;28;20245;-79
2022/09/08 15:44:35;;;;;;;3.60;0.90;;;;;;;25.93;33.33;97464.94;8315907;28;20232;-81
2022/09/08 15:48:49;;;;;;;1.87;0.73;;;;;;;25.74;34.60;97472.34;8315674;28;20247;-80
2022/09/08 15:53:19;;;;;;;1.53;0.70;;;;;;;25.23;33.86;97469.31;8315296;28;20227;-80
2022/09/08 15:57:27;;;;;;;1.23;0.60;;;;;;;25.00;34.40;97460.44;8315561;28;20240;-81
2022/09/08 16:01:44;;;;;;;1.67;0.77;;;;;;;24.88;35.33;97473.22;8315136;28;20233;-81
2022/09/08 16:05:50;;;;;;;1.97;0.53;;;;;;;24.78;36.09;97468.13;8314727;28;20526;-80
2022/09/08 16:10:02;;;;;;;2.73;0.53;;;;;;;24.60;37.20;97463.06;8314577;28;20296;-80
2022/09/08 16:14:18;;;;;;;2.50;0.90;;;;;;;24.44;36.49;97463.88;8314875;28;20225;-77
2022/09/08 16:18:32;;;;;;;2.60;1.00;;;;;;;24.31;37.58;97468.84;8313665;28;20565;-79
2022/09/08 16:22:35;;;;;;;3.73;0.70;;;;;;;24.36;37.28;97466.53;8314587;28;20235;-78
2022/09/08 16:26:44;;;;;;;2.17;0.70;;;;;;;24.42;37.28;97463.22;8314565;28;20226;-79
2022/09/08 16:30:55;;;;;;;1.77;0.70;;;;;;;24.36;36.73;97469.19;8314611;28;20236;-79
2022/09/08 16:35:16;;;;;;;2.73;0.87;;;;;;;24.34;37.06;97466.69;8311661;28;20246;-79
2022/09/08 16:39:22;;;;;;;2.30;0.70;;;;;;;24.22;37.56;97473.34;8313744;28;20240;-80
2022/09/08 16:43:28;;;;;;;1.57;0.60;;;;;;;24.24;37.61;97463.41;8314290;28;20239;-81
2022/09/08 16:47:39;;;;;;;2.57;0.70;;;;;;;24.23;38.28;97469.69;8314461;28;20291;-79
2022/09/08 16:51:51;;;;;;;2.33;0.90;;;;;;;24.14;38.16;97466.22;8314146;28;20230;-80
2022/09/08 16:55:56;;;;;;;2.17;0.90;;;;;;;23.88;37.32;97453.16;8313833;28;20529;-79
2022/09/08 17:00:14;;;;;;;3.90;0.97;;;;;;;23.84;36.89;97459.78;8314363;28;20233;-80
2022/09/08 17:04:22;;;;;;;3.43;0.80;;;;;;;23.80;37.32;97469.03;8314014;28;20242;-78
2022/09/08 17:08:47;;;;;;;2.87;1.10;;;;;;;23.62;37.20;97466.47;8313869;28;20239;-80
2022/09/08 17:12:54;;;;;;;1.47;0.60;;;;;;;23.73;37.37;97465.34;8313239;28;20232;-78
2022/09/08 17:17:24;;;;;;;3.43;1.07;;;;;;;23.72;37.27;97472.47;8313700;28;20270;-79
2022/09/08 17:21:59;;;;;;;3.93;1.30;;;;;;;23.73;37.90;97465.34;8313833;28;20225;-78
2022/09/08 17:26:11;;;;;;;3.50;0.70;;;;;;;23.74;37.90;97464.34;8313554;28;20536;-83
2022/09/08 17:30:16;;;;;;;4.13;1.40;;;;;;;23.66;37.51;97466.97;8315530;28;20475;-82
2022/09/08 17:34:40;;;;;;;3.17;0.80;;;;;;;23.56;37.98;97464.50;8319490;28;20231;-77
2022/09/08 17:38:51;;;;;;;3.80;1.00;;;;;;;23.55;39.26;97468.97;8314931;28;20238;-78
2022/09/08 17:43:00;;;;;;;1.57;0.80;;;;;;;23.49;39.15;97464.28;8318785;28;20225;-78
2022/09/08 17:47:13;;;;;;;3.60;1.20;;;;;;;23.46;39.30;97469.94;8318974;28;20303;-79
2022/09/08 17:51:20;;;;;;;3.70;0.87;;;;;;;23.38;39.84;97462.81;8318815;28;20237;-80
2022/09/08 17:55:32;;;;;;;2.93;1.20;;;;;;;23.22;40.59;97470.66;8319250;28;20233;-78
2022/09/08 17:59:54;;;;;;;2.87;1.10;;;;;;;23.11;40.67;97478.88;8321080;28;20513;-79
2022/09/08 18:04:00;;;;;;;3.00;0.90;;;;;;;23.05;40.87;97477.69;8317684;28;20225;-77
2022/09/08 18:08:14;;;;;;;4.43;1.30;;;;;;;22.91;41.48;97483.56;8317903;28;20232;-79
2022/09/08 18:12:27;;;;;;;2.70;1.00;;;;;;;22.85;42.99;97487.66;8316836;28;20234;-79
2022/09/08 18:16:35;;;;;;;4.93;1.40;;;;;;;22.74;43.72;97501.13;8318217;28;20228;-80
2022/09/08 18:20:38;;;;;;;3.93;1.20;;;;;;;22.74;43.75;97501.13;8318783;28;20251;-80
2022/09/08 18:24:41;;;;;;;2.53;1.00;;;;;;;22.63;46.01;97512.75;8318575;28;20228;-79
2022/09/08 18:29:01;;;;;;;2.13;1.10;;;;;;;22.57;44.75;97522.13;8318541;28;20468;-79
2022/09/08 18:33:14;;;;;;;3.80;1.40;;;;;;;22.56;44.72;97527.53;8318139;28;20240;-79
2022/09/08 18:37:18;;;;;;;3.07;1.20;;;;;;;22.50;44.41;97533.44;8318048;28;20282;-79
2022/09/08 18:41:24;;;;;;;4.73;1.10;;;;;;;22.45;44.49;97539.19;8316970;28;20229;-80
2022/09/08 18:45:47;;;;;;;5.50;1.67;;;;;;;22.25;44.58;97531.44;8317629;28;20229;-77
2022/09/08 18:50:07;;;;;;;3.30;1.13;;;;;;;22.23;45.76;97540.47;8317046;28;20288;-76
2022/09/08 18:54:34;;;;;;;5.00;2.10;;;;;;;22.16;45.88;97542.03;8317093;28;20228;-78
2022/09/08 18:58:46;;;;;;;4.07;2.07;;;;;;;22.16;46.00;97542.88;8316847;28;20550;-76
2022/09/08 19:02:52;;;;;;;4.73;2.07;;;;;;;22.14;46.27;97546.63;8316301;28;20237;-75
2022/09/08 19:06:59;;;;;;;4.73;1.50;;;;;;;21.99;46.43;97554.22;8316384;28;20239;-75
2022/09/08 19:11:19;;;;;;;6.87;1.23;;;;;;;22.08;46.15;97555.97;8316439;28;20239;-75
2022/09/08 19:15:45;;;;;;;5.43;1.40;;;;;;;21.93;47.41;97560.13;8316434;28;20423;-76
2022/09/08 19:19:55;;;;;;;2.97;1.40;;;;;;;21.89;46.81;97572.75;8315775;28;20232;-74
2022/09/08 19:24:02;;;;;;;5.43;1.70;;;;;;;21.83;46.73;97571.53;8316018;28;20233;-75
2022/09/08 19:28:22;;;;;;;4.43;1.60;;;;;;;21.81;46.74;97570.03;8316032;28;20616;-74
2022/09/08 19:32:41;;;;;;;4.77;2.23;;;;;;;21.81;46.62;97570.03;8315885;28;20240;-75
2022/09/08 19:36:50;;;;;;;5.50;2.30;;;;;;;21.75;47.17;97563.56;8315796;28;20238;-76
2022/09/08 19:41:00;;;;;;;5.93;2.73;;;;;;;21.57;48.46;97567.97;8315202;28;20258;-76
2022/09/08 19:45:07;;;;;;;5.63;1.93;;;;;;;21.52;48.17;97586.84;8315641;28;20404;-75
2022/09/08 19:49:11;;;;;;;3.77;1.70;;;;;;;21.48;48.15;97580.22;8315144;28;20229;-75
2022/09/08 19:53:26;;;;;;;6.40;1.90;;;;;;;21.48;48.45;97593.41;8315142;28;20279;-76